WAGO2: Chouteau Lock And Dam (L&D 17)

Data processed at Sat Dec 15 2018 23:32


All information presented herein is the property of the government of the United States of America and may be revised or deleted at any time without prior notice.
Dissemination of this information without the expressed written consent of the Public Affairs Office, Tulsa District U.S. Army Corps of Engineers is strictly prohibited.
These data are gathered electronically and, as presented, have not undergone any form of quality control. These data are not guaranteed to be valid or correct.
Go to home page.
Go to station list.
Go to home page.

Upstream stations:

Downstream station:
Previous Day
Next Day
Current Day
    
SHEF ID:       WAGO2     Chouteau LD17
STATION TYPE:  NAVIGATION LOCK
Normal Pool:  Bottom =   511.50, Top =   511.50

               PRECIP ELEVATION   STORAGE   TW-ELEV    INFLOW   RELEASE  AIR-TEMP  WIND-DIRWIND-SPEED REL-HUMID SOLAR-RAD   VOLTAGE  BAT-LOAD
                   in        ft     ac-ft        ft       cfs       cfs         F       deg       mph         %      W/m2      volt      volt
              Ccp-Rev   Ccp-Rev   Ccp-Rev   Ccp-Rev  Regi-Rev  Regi-Rev   Ccp-Rev   Ccp-Rev   Ccp-Rev   Ccp-Rev   Ccp-Rev   Ccp-Rev   Ccp-Rev
(US/Central)
12/15 00:00      0.00    511.32     23296    491.66     13645     13700     40.59    334.60     11.60     79.64      0.00     13.51     13.11
12/15 01:00      0.00    511.33     23319    491.39     13206     13701     39.58    337.20     11.20     75.73      0.00     13.59     13.11
12/15 02:00      0.00    511.34     23342    491.16     13590     13700     38.23    343.90      8.10     74.67      0.00     13.58     13.12
12/15 03:00      0.00    511.34     23342    491.09     13645     13700     36.86    331.60      7.20     76.45      0.00     13.57     13.11
12/15 04:00      0.00    511.34     23342    491.01     14249     13700     36.39    338.60      6.10     74.47      0.00     13.55     13.10
12/15 05:00      0.00    511.31     23274    490.93     14139     13700     34.95    328.90      4.90     76.03      0.00     13.57     13.11
12/15 06:00      0.00    511.43     23546    490.74     16666     13700     34.65    338.30      5.50     72.95      0.00     13.58     13.11
12/15 07:00      0.00    511.42     23523    490.83     14799     13700     33.78    336.90      6.70     74.01      0.00     13.57     13.12
12/15 08:00      0.00    511.88     24568    490.86     14524     13700     33.13    344.30      5.20     74.49      4.50     13.58     13.11
12/15 09:00      0.00    511.54     23796    490.82     13810     13700     35.19    332.30      7.00     66.90    127.00     13.51     13.11
12/15 10:00      0.00    511.46     23614    490.79     14249     13700     38.32    340.90      8.10     57.82    296.30     13.55     13.16
12/15 11:00      0.00    511.45     23591    490.74     11722     13700     41.13    337.90      8.70     54.27    438.60     13.56     13.11
12/15 12:00      0.00    511.52     23750    490.72     13700     13700     45.01    339.40      8.60     50.23    531.10     13.53     13.11
12/15 13:00      0.00    511.52     23750    490.74     14030     13700     48.76    337.00      9.80     47.54    561.30     13.58     13.13
12/15 14:00      0.00    511.54     23796    490.51     13480     13700     51.89    338.10      8.90     45.82    526.80     13.51     13.11
12/15 15:00      0.00    511.52     23750    490.31     13645     13700     54.32    336.70      8.00     44.18    435.50     13.57     13.11
12/15 16:00      0.00    511.41     23501    490.21     13041     13700     55.63    333.10      6.50     43.43    290.90     13.56     13.11
12/15 17:00      0.00    511.51     23728    489.91     13261     13700     54.77    321.60      4.10     43.45     92.10     13.53     13.11
12/15 18:00      0.00    511.40     23478    490.20     13425     13700     49.64    312.80      0.90     55.14      0.00     13.55     13.11
12/15 19:00      0.00    511.46     23614    490.12     14085     13700     43.86     57.10      0.30     75.10      0.00     13.52     13.10
12/15 20:00      0.00    511.47     23637    490.18     13315     13700     40.39    152.00      0.30     85.37      0.00     13.55     13.10
12/15 21:00      0.00    511.48     23660    490.20     13975     13700     38.32    140.60      0.50     91.24      0.00     13.54     13.10
12/15 22:00      0.00    511.44     23569    490.19     13151     13700     37.00    261.20      0.70     94.36      0.00     13.59     13.09
12/15 23:00      ----      ----      ----      ----      -901      -901      ----      ----      ----      ----      ----      ----      ----